createdAt,value
2024-05-09T00:00:35.309Z,5.90
2024-05-09T00:03:30.191Z,5.40
2024-05-09T00:08:31.786Z,4.80
2024-05-09T00:11:03.269Z,7.80
2024-05-09T00:13:34.435Z,8.20
2024-05-09T00:16:06.715Z,8.00
2024-05-09T00:18:37.983Z,7.70
2024-05-09T00:21:10.559Z,7.90
2024-05-09T00:23:42.184Z,7.50
2024-05-09T00:26:17.936Z,5.90
2024-05-09T00:28:49.297Z,7.50
2024-05-09T00:31:20.626Z,4.10
2024-05-09T00:33:51.675Z,7.20
2024-05-09T00:36:22.926Z,8.60
2024-05-09T00:38:53.871Z,8.30
2024-05-09T00:41:25.103Z,8.80
2024-05-09T00:43:56.117Z,8.50
2024-05-09T00:46:27.933Z,5.90
2024-05-09T00:48:59.703Z,8.20
2024-05-09T00:51:30.817Z,8.40
2024-05-09T00:54:02.468Z,8.30
2024-05-09T00:56:35.866Z,5.70
2024-05-09T00:59:07.312Z,5.40
2024-05-09T01:01:38.721Z,8.50
2024-05-09T01:04:10.824Z,8.40
2024-05-09T01:06:42.337Z,8.30
2024-05-09T01:09:13.403Z,8.30
2024-05-09T01:11:44.698Z,8.30
2024-05-09T01:14:16.053Z,8.80
2024-05-09T01:16:47.442Z,7.90
2024-05-09T01:19:26.991Z,8.30
2024-05-09T01:21:58.219Z,8.10
2024-05-09T01:24:29.353Z,8.60
2024-05-09T01:27:00.644Z,8.20
2024-05-09T01:29:31.807Z,8.10
2024-05-09T01:32:04.459Z,8.30
2024-05-09T01:34:35.622Z,8.10
2024-05-09T01:37:06.699Z,8.80
2024-05-09T01:39:37.764Z,6.00
2024-05-09T01:42:08.974Z,8.40
2024-05-09T01:44:39.895Z,8.40
2024-05-09T01:47:11.376Z,8.90
2024-05-09T01:52:12.278Z,8.00
2024-05-09T01:54:43.633Z,8.60
2024-05-09T01:57:15.020Z,8.60
2024-05-09T01:59:46.109Z,8.40
2024-05-09T02:02:17.566Z,8.40
2024-05-09T02:07:19.427Z,8.00
2024-05-09T02:09:53.638Z,8.30
2024-05-09T02:12:24.994Z,8.80
2024-05-09T02:17:26.145Z,9.60
2024-05-09T02:19:57.379Z,5.20
2024-05-09T02:22:28.603Z,5.90
2024-05-09T02:24:59.684Z,6.00
2024-05-09T02:27:30.988Z,6.10
2024-05-09T02:30:01.993Z,9.00
2024-05-09T02:32:33.343Z,9.10
2024-05-09T02:35:04.501Z,9.10
2024-05-09T02:37:35.792Z,9.70
2024-05-09T02:40:11.725Z,6.60
2024-05-09T02:42:45.854Z,6.20
2024-05-09T02:45:17.098Z,9.30
2024-05-09T02:47:48.570Z,9.60
2024-05-09T02:53:05.705Z,5.80
2024-05-09T02:55:37.173Z,6.20
2024-05-09T02:58:08.686Z,10.00
2024-05-09T03:03:15.623Z,5.60
2024-05-09T03:05:49.262Z,5.80
2024-05-09T03:08:20.549Z,9.60
2024-05-09T03:10:51.527Z,10.00
2024-05-09T03:13:22.737Z,5.10
2024-05-09T03:15:53.794Z,9.50
2024-05-09T03:18:24.998Z,5.70
2024-05-09T03:20:56.221Z,10.00
2024-05-09T03:23:27.190Z,9.30
2024-05-09T03:25:58.566Z,10.10
2024-05-09T03:28:29.836Z,6.40
2024-05-09T03:31:01.023Z,6.80
2024-05-09T03:33:32.332Z,7.10
2024-05-09T03:36:09.034Z,6.90
2024-05-09T03:38:41.934Z,6.10
2024-05-09T03:41:14.580Z,7.20
2024-05-09T03:43:47.158Z,7.20
2024-05-09T03:46:18.198Z,7.10
2024-05-09T03:48:49.564Z,7.40
2024-05-09T03:51:20.715Z,10.10
2024-05-09T03:53:51.884Z,10.90
2024-05-09T03:56:23.239Z,6.50
2024-05-09T03:58:55.912Z,6.80
2024-05-09T04:01:29.640Z,6.80
2024-05-09T04:04:00.781Z,6.50
2024-05-09T04:06:32.000Z,6.80
2024-05-09T04:09:03.553Z,6.20
2024-05-09T04:14:04.433Z,5.70
2024-05-09T04:16:35.613Z,6.40
2024-05-09T04:19:07.751Z,6.50
2024-05-09T04:21:38.989Z,6.10
2024-05-09T04:24:10.254Z,6.50
2024-05-09T04:26:41.229Z,7.30
2024-05-09T04:29:12.323Z,7.60
2024-05-09T04:31:43.652Z,7.00
2024-05-09T04:34:14.900Z,10.80
2024-05-09T04:36:46.184Z,7.50
2024-05-09T04:39:17.368Z,7.20
2024-05-09T04:41:48.501Z,7.00
2024-05-09T04:44:19.581Z,10.20
2024-05-09T04:46:50.855Z,8.10
2024-05-09T04:49:21.951Z,8.00
2024-05-09T04:51:53.227Z,10.30
2024-05-09T04:54:33.694Z,10.90
2024-05-09T04:57:07.989Z,11.70
2024-05-09T05:02:09.796Z,11.20
2024-05-09T05:04:40.830Z,11.90
2024-05-09T05:07:12.183Z,11.00
2024-05-09T05:09:43.248Z,11.10
2024-05-09T05:12:28.650Z,11.10
2024-05-09T05:14:59.769Z,11.50
2024-05-09T05:17:31.266Z,11.60
2024-05-09T05:22:32.984Z,11.80
2024-05-09T05:25:04.666Z,11.50
2024-05-09T05:27:35.719Z,11.70
2024-05-09T05:30:14.646Z,11.00
2024-05-09T05:32:48.956Z,12.00
2024-05-09T05:35:20.131Z,11.00
2024-05-09T05:37:51.329Z,10.70
2024-05-09T05:40:32.042Z,10.10
2024-05-09T05:43:08.184Z,11.00
2024-05-09T05:45:39.563Z,10.10
2024-05-09T05:50:41.501Z,10.00
2024-05-09T05:55:43.232Z,8.50
2024-05-09T05:58:15.229Z,9.20
2024-05-09T06:00:46.422Z,8.00
2024-05-09T06:03:17.872Z,7.90
2024-05-09T06:05:49.242Z,8.00
2024-05-09T06:08:20.860Z,7.80
2024-05-09T06:10:51.997Z,7.70
2024-05-09T06:13:23.030Z,7.70
2024-05-09T06:15:54.382Z,7.10
2024-05-09T06:20:55.849Z,6.60
2024-05-09T06:23:26.956Z,7.00
2024-05-09T06:25:58.139Z,6.40
2024-05-09T06:28:29.585Z,7.00
2024-05-09T06:33:30.662Z,5.30
2024-05-09T06:36:01.885Z,5.10
2024-05-09T06:38:33.556Z,4.60
2024-05-09T06:41:05.815Z,4.20
2024-05-09T06:43:38.011Z,3.90
2024-05-09T06:46:09.119Z,5.00
2024-05-09T06:48:40.628Z,4.30
2024-05-09T06:51:11.792Z,4.10
2024-05-09T06:53:43.139Z,4.00
2024-05-09T06:58:44.418Z,4.10
2024-05-09T07:01:15.655Z,4.20
2024-05-09T07:03:47.110Z,4.20
2024-05-09T07:06:18.459Z,4.00
2024-05-09T07:11:21.559Z,4.30
2024-05-09T07:13:53.568Z,4.30
2024-05-09T07:16:24.808Z,3.80
2024-05-09T07:18:56.388Z,3.80
2024-05-09T07:21:27.566Z,4.30
2024-05-09T07:23:58.872Z,4.70
2024-05-09T07:26:30.256Z,6.00
2024-05-09T07:29:01.702Z,4.00
2024-05-09T07:31:32.996Z,4.20
2024-05-09T07:36:33.895Z,4.90
2024-05-09T07:39:05.419Z,4.00
2024-05-09T07:41:36.944Z,6.20
2024-05-09T07:44:08.312Z,4.10
2024-05-09T07:47:47.646Z,5.70
2024-05-09T07:54:41.336Z,5.20
2024-05-09T07:59:42.496Z,4.60
2024-05-09T08:02:13.718Z,4.90
2024-05-09T08:04:44.989Z,3.70
2024-05-09T08:09:47.432Z,4.30
2024-05-09T08:12:18.534Z,4.50
2024-05-09T08:17:19.408Z,4.70
2024-05-09T08:22:20.291Z,4.10
2024-05-09T08:27:21.374Z,4.40
2024-05-09T08:32:23.120Z,4.50
2024-05-09T08:34:54.057Z,3.20
2024-05-09T08:37:29.423Z,3.90
2024-05-09T08:40:04.143Z,4.00
2024-05-09T08:42:39.021Z,4.10
2024-05-09T08:45:13.242Z,3.80
2024-05-09T08:47:45.967Z,4.30
2024-05-09T08:50:28.917Z,3.90
2024-05-09T08:53:07.733Z,4.40
2024-05-09T08:55:42.041Z,4.10
2024-05-09T08:58:17.803Z,3.90
2024-05-09T09:00:49.780Z,4.30
2024-05-09T09:03:27.582Z,3.90
2024-05-09T09:06:02.895Z,4.00
2024-05-09T09:08:34.212Z,4.30
2024-05-09T09:13:35.565Z,4.00
2024-05-09T09:18:38.004Z,4.00
2024-05-09T09:21:13.347Z,4.20
2024-05-09T09:23:45.452Z,4.50
2024-05-09T09:26:18.902Z,4.20
2024-05-09T09:28:50.126Z,3.90
2024-05-09T09:31:21.822Z,3.70
2024-05-09T09:33:53.300Z,4.40
2024-05-09T09:36:24.692Z,3.80
2024-05-09T09:41:30.425Z,4.40
2024-05-09T09:44:03.708Z,4.10
2024-05-09T09:46:35.448Z,4.40
2024-05-09T09:49:07.295Z,3.90
2024-05-09T09:51:43.333Z,3.60
2024-05-09T09:54:15.736Z,3.60
2024-05-09T09:56:48.523Z,3.70
2024-05-09T09:59:22.039Z,4.00
2024-05-09T10:01:53.261Z,3.80
2024-05-09T10:04:24.811Z,4.10
2024-05-09T10:07:02.130Z,3.60
2024-05-09T10:09:34.344Z,3.90
2024-05-09T10:12:13.352Z,3.80
2024-05-09T10:14:50.767Z,4.40
2024-05-09T10:17:22.129Z,3.40
2024-05-09T10:20:11.713Z,3.50
2024-05-09T10:22:50.543Z,3.30
2024-05-09T10:25:23.380Z,3.90
2024-05-09T10:27:57.860Z,5.30
2024-05-09T10:30:34.263Z,4.10
2024-05-09T10:49:45.630Z,4.30
2024-05-09T10:52:20.499Z,4.30
2024-05-09T10:54:54.000Z,4.30
2024-05-09T10:57:27.010Z,4.00
2024-05-09T11:00:00.752Z,5.00
2024-05-09T11:02:33.024Z,10.20
2024-05-09T11:05:06.185Z,5.40
2024-05-09T11:07:37.732Z,4.60
2024-05-09T11:10:14.488Z,4.20
2024-05-09T11:12:47.021Z,11.10
2024-05-09T11:15:18.762Z,14.20
2024-05-09T11:17:50.411Z,56.50
2024-05-09T11:20:29.100Z,19.80
2024-05-09T11:23:01.423Z,9.50
2024-05-09T11:25:33.809Z,5.10
2024-05-09T11:28:05.833Z,4.10
2024-05-09T11:30:37.584Z,3.60
2024-05-09T11:33:12.093Z,3.60
2024-05-09T11:35:43.790Z,3.80
2024-05-09T11:38:15.359Z,3.60
2024-05-09T11:40:46.808Z,3.40
2024-05-09T11:43:18.454Z,3.80
2024-05-09T11:45:50.251Z,3.00
2024-05-09T11:48:22.135Z,3.50
2024-05-09T11:50:54.930Z,3.40
2024-05-09T11:53:26.759Z,3.10
2024-05-09T11:55:58.112Z,3.70
2024-05-09T11:58:34.082Z,3.50
2024-05-09T12:01:05.847Z,3.90
2024-05-09T12:03:38.513Z,3.40
2024-05-09T12:06:10.039Z,3.10
2024-05-09T12:08:41.897Z,3.60
2024-05-09T12:11:14.128Z,3.30
2024-05-09T12:13:45.651Z,3.60
2024-05-09T12:16:17.245Z,3.30
2024-05-09T12:18:48.683Z,3.10
2024-05-09T12:21:20.498Z,3.50
2024-05-09T12:23:52.116Z,3.00
2024-05-09T12:26:23.591Z,2.90
2024-05-09T12:28:54.965Z,3.00
2024-05-09T12:31:26.812Z,3.50
2024-05-09T12:34:00.116Z,3.20
2024-05-09T12:36:31.754Z,3.10
2024-05-09T12:39:05.714Z,3.00
2024-05-09T12:41:37.397Z,3.40
2024-05-09T12:44:08.766Z,2.80
2024-05-09T12:46:40.156Z,3.20
2024-05-09T12:49:13.246Z,2.90
2024-05-09T12:51:45.688Z,3.70
2024-05-09T12:54:16.793Z,3.50
2024-05-09T12:56:48.196Z,3.40
2024-05-09T12:59:19.829Z,3.20
2024-05-09T13:01:51.452Z,3.10
2024-05-09T13:04:23.674Z,3.40
2024-05-09T13:06:55.219Z,3.40
2024-05-09T13:09:26.708Z,2.80
2024-05-09T13:11:58.148Z,2.90
2024-05-09T13:14:29.627Z,3.10
2024-05-09T13:17:01.025Z,3.20
2024-05-09T13:19:32.481Z,2.90
2024-05-09T13:22:04.297Z,3.20
2024-05-09T13:24:35.672Z,3.00
2024-05-09T13:27:07.469Z,3.00
2024-05-09T13:29:41.095Z,2.90
2024-05-09T13:32:14.399Z,3.10
2024-05-09T13:34:45.968Z,3.00
2024-05-09T13:37:17.663Z,3.00
2024-05-09T13:39:49.305Z,3.00
2024-05-09T13:42:20.740Z,2.90
2024-05-09T13:44:52.295Z,3.00
2024-05-09T13:47:24.273Z,2.90
2024-05-09T13:49:56.208Z,3.40
2024-05-09T13:52:27.757Z,3.10
2024-05-09T13:54:59.593Z,3.00
2024-05-09T13:57:31.513Z,3.80
2024-05-09T14:00:06.811Z,3.30
2024-05-09T14:02:43.996Z,3.10
2024-05-09T14:05:16.037Z,3.40
2024-05-09T14:07:47.938Z,3.50
2024-05-09T14:10:23.489Z,2.90
2024-05-09T14:13:01.035Z,3.20
2024-05-09T14:15:32.740Z,2.60
2024-05-09T14:18:04.352Z,2.80
2024-05-09T14:20:35.594Z,3.20
2024-05-09T14:23:08.163Z,3.30
2024-05-09T14:25:42.766Z,2.80
2024-05-09T14:28:15.384Z,3.00
2024-05-09T14:30:47.183Z,3.10
2024-05-09T14:33:23.504Z,3.00
2024-05-09T14:35:55.483Z,3.10
2024-05-09T14:38:27.413Z,3.10
2024-05-09T14:40:58.861Z,3.30
2024-05-09T14:43:30.318Z,3.10
2024-05-09T14:46:01.707Z,3.20
2024-05-09T14:48:33.479Z,3.10
2024-05-09T14:51:05.286Z,3.40
2024-05-09T14:53:36.837Z,4.30
2024-05-09T14:56:09.289Z,3.80
2024-05-09T14:58:40.865Z,3.30
2024-05-09T15:01:12.288Z,3.10
2024-05-09T15:03:44.396Z,3.40
2024-05-09T15:06:17.805Z,3.30
2024-05-09T15:08:57.147Z,3.70
2024-05-09T15:11:28.404Z,3.30
2024-05-09T15:14:00.104Z,3.40
2024-05-09T15:16:31.941Z,3.50
2024-05-09T15:19:03.666Z,3.60
2024-05-09T15:21:35.683Z,3.20
2024-05-09T15:24:08.083Z,3.20
2024-05-09T15:26:40.041Z,3.30
2024-05-09T15:29:11.376Z,3.00
2024-05-09T15:31:42.988Z,3.20
2024-05-09T15:34:14.293Z,3.50
2024-05-09T15:36:47.954Z,3.30
2024-05-09T15:39:19.855Z,3.10
2024-05-09T15:41:52.925Z,2.90
2024-05-09T15:44:26.236Z,3.30
2024-05-09T15:46:57.553Z,3.40
2024-05-09T15:49:29.218Z,2.90
2024-05-09T15:52:00.972Z,3.00
2024-05-09T15:54:32.281Z,3.10
2024-05-09T15:59:33.491Z,2.80
2024-05-09T16:04:35.349Z,3.10
2024-05-09T16:07:06.922Z,3.40
2024-05-09T16:09:38.748Z,3.10
2024-05-09T16:12:10.447Z,3.20
2024-05-09T16:14:41.837Z,3.50
2024-05-09T16:17:14.100Z,3.30
2024-05-09T16:19:45.580Z,3.70
2024-05-09T16:22:17.358Z,3.10
2024-05-09T16:24:49.020Z,3.60
2024-05-09T16:29:50.825Z,3.50
2024-05-09T16:32:22.260Z,4.30
2024-05-09T16:34:53.850Z,3.40
2024-05-09T16:37:27.522Z,3.60
2024-05-09T16:40:00.292Z,3.30
2024-05-09T16:42:32.919Z,3.10
2024-05-09T16:45:04.309Z,3.60
2024-05-09T16:47:36.093Z,3.30
2024-05-09T16:50:10.761Z,3.90
2024-05-09T16:52:44.557Z,3.30
2024-05-09T16:55:16.528Z,3.30
2024-05-09T16:57:48.125Z,3.20
2024-05-09T17:00:30.905Z,3.80
2024-05-09T17:03:11.935Z,3.60
2024-05-09T17:05:45.232Z,3.50
2024-05-09T17:08:19.528Z,3.60
2024-05-09T17:10:51.292Z,3.40
2024-05-09T17:13:23.475Z,3.70
2024-05-09T17:15:55.759Z,3.20
2024-05-09T17:18:28.088Z,3.30
2024-05-09T17:20:59.776Z,3.70
2024-05-09T17:23:34.348Z,3.60
2024-05-09T17:26:06.809Z,3.60
2024-05-09T17:28:38.645Z,3.50
2024-05-09T17:31:10.311Z,4.40
2024-05-09T17:33:42.486Z,4.20
2024-05-09T17:36:13.975Z,4.10
2024-05-09T17:41:15.290Z,4.20
2024-05-09T17:43:46.851Z,4.90
2024-05-09T17:46:18.244Z,4.90
2024-05-09T17:48:49.682Z,5.40
2024-05-09T17:51:20.870Z,8.70
2024-05-09T17:53:52.335Z,9.70
2024-05-09T17:56:23.681Z,15.70
2024-05-09T18:01:25.552Z,4.60
2024-05-09T18:03:56.974Z,3.90
2024-05-09T18:06:28.902Z,4.00
2024-05-09T18:09:00.212Z,4.40
2024-05-09T18:14:01.917Z,4.20
2024-05-09T18:16:33.505Z,5.10
2024-05-09T18:19:05.424Z,6.50
2024-05-09T18:21:37.028Z,6.00
2024-05-09T18:24:09.958Z,6.80
2024-05-09T18:26:41.844Z,6.40
2024-05-09T18:29:13.207Z,6.40
2024-05-09T18:31:44.810Z,6.80
2024-05-09T18:34:16.278Z,6.30
2024-05-09T18:36:47.831Z,6.20
2024-05-09T18:39:19.301Z,6.00
2024-05-09T18:44:21.185Z,6.20
2024-05-09T18:46:52.836Z,7.10
2024-05-09T18:49:24.335Z,6.60
2024-05-09T18:51:55.907Z,7.20
2024-05-09T18:56:56.991Z,6.70
2024-05-09T18:59:28.357Z,6.60
2024-05-09T19:02:00.005Z,6.10
2024-05-09T19:04:32.279Z,5.90
2024-05-09T19:07:04.494Z,6.40
2024-05-09T19:09:36.202Z,6.20
2024-05-09T19:12:09.352Z,6.10
2024-05-09T19:14:40.668Z,7.20
2024-05-09T19:19:41.865Z,6.60
2024-05-09T19:22:13.058Z,6.50
2024-05-09T19:24:44.518Z,6.90
2024-05-09T19:29:46.015Z,6.50
2024-05-09T19:34:47.767Z,7.60
2024-05-09T19:39:48.960Z,6.80
2024-05-09T19:42:20.284Z,6.80
2024-05-09T19:44:51.522Z,8.00
2024-05-09T19:47:22.833Z,9.20
2024-05-09T19:49:54.521Z,8.90
2024-05-09T19:52:26.882Z,8.80
2024-05-09T19:54:58.430Z,7.40
2024-05-09T19:57:30.319Z,7.10
2024-05-09T20:00:01.724Z,6.90
2024-05-09T20:05:04.130Z,6.20
2024-05-09T20:07:37.402Z,6.90
2024-05-09T20:10:16.606Z,7.30
2024-05-09T20:12:54.733Z,6.40
2024-05-09T20:15:26.304Z,6.80
2024-05-09T20:17:57.669Z,7.20
2024-05-09T20:23:10.990Z,6.60
2024-05-09T20:25:43.352Z,7.20
2024-05-09T20:28:15.461Z,7.60
2024-05-09T20:30:46.853Z,7.90
2024-05-09T20:33:18.481Z,6.90
2024-05-09T20:38:19.777Z,6.90
2024-05-09T20:40:51.205Z,7.30
2024-05-09T20:45:53.300Z,6.80
2024-05-09T20:48:24.824Z,7.20
2024-05-09T20:53:26.600Z,7.20
2024-05-09T20:58:28.853Z,6.50
2024-05-09T21:01:01.206Z,6.80
2024-05-09T21:03:35.273Z,7.40
2024-05-09T21:06:07.560Z,7.30
2024-05-09T21:08:39.325Z,8.00
2024-05-09T21:11:10.947Z,7.10
2024-05-09T21:13:42.695Z,7.70
2024-05-09T21:16:14.513Z,7.50
2024-05-09T21:18:46.319Z,7.30
2024-05-09T21:21:17.780Z,7.90
2024-05-09T21:23:49.225Z,6.90
2024-05-09T21:26:23.521Z,7.20
2024-05-09T21:28:55.418Z,7.80
2024-05-09T21:31:26.872Z,8.00
2024-05-09T21:36:28.758Z,7.30
2024-05-09T21:39:00.107Z,8.10
2024-05-09T21:41:31.654Z,7.30
2024-05-09T21:44:02.957Z,6.80
2024-05-09T21:46:34.409Z,7.40
2024-05-09T21:51:36.123Z,7.30
2024-05-09T21:54:07.410Z,7.50
2024-05-09T21:56:38.580Z,7.20
2024-05-09T21:59:10.254Z,7.80
2024-05-09T22:01:41.520Z,6.90
2024-05-09T22:04:12.964Z,7.90
2024-05-09T22:06:44.833Z,7.30
2024-05-09T22:09:16.375Z,7.80
2024-05-09T22:14:20.963Z,7.70
2024-05-09T22:16:52.314Z,5.20
2024-05-09T22:19:23.476Z,7.60
2024-05-09T22:21:55.403Z,7.00
2024-05-09T22:24:27.172Z,7.60
2024-05-09T22:29:28.935Z,8.70
2024-05-09T22:32:00.225Z,9.40
2024-05-09T22:34:32.215Z,6.20
2024-05-09T22:37:03.932Z,9.20
2024-05-09T22:39:35.482Z,8.80
2024-05-09T22:44:37.905Z,9.50
2024-05-09T22:47:09.519Z,8.90
2024-05-09T22:49:40.999Z,8.80
2024-05-09T22:52:12.597Z,8.90
2024-05-09T22:54:45.000Z,8.20
2024-05-09T22:57:16.429Z,8.80
2024-05-09T22:59:48.089Z,9.30
2024-05-09T23:02:19.453Z,9.10
2024-05-09T23:07:21.142Z,6.00
2024-05-09T23:09:52.760Z,8.60
2024-05-09T23:14:54.278Z,8.30
2024-05-09T23:17:25.804Z,8.70
2024-05-09T23:22:27.113Z,6.80
2024-05-09T23:24:58.556Z,9.80
2024-05-09T23:30:00.279Z,8.70
2024-05-09T23:35:02.416Z,8.90
2024-05-09T23:40:06.996Z,8.20
2024-05-09T23:42:42.663Z,8.90
2024-05-09T23:45:14.011Z,9.20
2024-05-09T23:47:45.493Z,8.70
2024-05-09T23:52:55.613Z,9.20
2024-05-09T23:55:27.004Z,9.20
2024-05-09T23:57:58.367Z,9.10
